Thursday, July 19, 2018, 1:31 PM EDT
Back to Local

KMUI, Muir Army Air Field / Indiantown

Location: Jonestown, PA, United States Lat: 40.433
Local Time: 1:31 PM EDT (17:31 GMT) Lon: -76.567
Time Zone: US/Eastern Elev: 488 ft

Show me the last for .
Show Decoded

2018-07-19 12:56 METAR KMUI 191656Z 18005KT 10SM CLR 26/12 A3011 RMK AO2A SLP196 T02550120 =
2018-07-19 11:56 METAR KMUI 191556Z 00000KT 10SM CLR 25/11 A3013 RMK AO2A SLP203 T02460108 =
2018-07-19 10:56 METAR KMUI 191456Z 00000KT 10SM CLR 23/09 A3013 RMK AO2A SLP204 T02330093 =
2018-07-19 09:56 METAR KMUI 191356Z 00000KT 10SM CLR 22/10 A3013 RMK AO2A SLP204 T02240099 =
2018-07-19 08:56 METAR KMUI 191256Z 00000KT 10SM CLR 21/10 A3013 RMK AO2A SLP204 T02090095 $ =
2018-07-19 07:56 METAR KMUI 191156Z AUTO 00000KT 10SM CLR 19/12 A3012 RMK AO2 SLP200 T01900115
                 10190 20121 52012 $ =
2018-07-19 06:56 METAR KMUI 191056Z AUTO 00000KT 10SM CLR 15/12 A3011 RMK AO2 SLP197 T01490124 $
                 =
2018-07-19 05:56 METAR KMUI 190956Z AUTO 00000KT 10SM CLR 12/12 A3009 RMK AO2 SLP190 T01220116 $
                 =
2018-07-19 04:56 METAR KMUI 190856Z AUTO 00000KT 10SM CLR 13/12 A3008 RMK AO2 SLP187 T01340120
                 52009 $ =
2018-07-19 03:56 METAR KMUI 190756Z AUTO 00000KT 10SM CLR 15/12 A3007 RMK AO2 SLP183 T01450120 $
                 =
2018-07-19 02:56 METAR KMUI 190656Z AUTO 01003KT 10SM CLR 16/12 A3007 RMK AO2 SLP183 T01590121 $
                 =
2018-07-19 01:56 METAR KMUI 190556Z AUTO 05003KT 10SM CLR 19/11 A3006 RMK AO2 SLP179 T01880106
                 10231 20167 52015 $ =
2018-07-19 00:56 METAR KMUI 190456Z AUTO 08004KT 10SM CLR 19/13 A3004 RMK AO2 SLP173 T01850125
                 402790167 $ =
2018-07-18 23:56 METAR KMUI 190356Z AUTO 06004KT 10SM CLR 19/13 A3002 RMK AO2 SLP166 T01940126 $
                 =
2018-07-18 22:56 METAR KMUI 190256Z AUTO 06003KT 10SM CLR 17/15 A3001 RMK AO2 SLP163 T01690154
                 52015 $ =
2018-07-18 21:56 METAR KMUI 190156Z AUTO 00000KT 10SM CLR 18/15 A3000 RMK AO2 SLP159 T01820149 $
                 =
2018-07-18 20:56 METAR KMUI 190056Z AUTO 00000KT 10SM CLR 20/15 A2998 RMK AO2 SLP153 T01990147 $
                 =
2018-07-18 19:56 METAR KMUI 182356Z AUTO 34003KT 10SM CLR 23/15 A2996 RMK AO2 SLP146 T02320152
                 10279 20232 53003 $ =
2018-07-18 18:56 METAR KMUI 182256Z AUTO 33004KT 10SM CLR 27/12 A2996 RMK AO2 SLP145 T02670116 $
                 =
2018-07-18 17:56 METAR KMUI 182156Z 32005KT 10SM FEW050 27/11 A2995 RMK AO2A SLP142 T02730113 $ =
2018-07-18 16:56 METAR KMUI 182056Z 31006KT 10SM FEW050 FEW080 28/12 A2996 RMK AO2A SLP145
                 T02770121 58004 $ =
2018-07-18 15:56 METAR KMUI 181956Z 31004KT 10SM SCT050 SCT080 28/14 A2997 RMK AO2A SLP148
                 T02760135 $ =
2018-07-18 14:56 METAR KMUI 181856Z 36004KT 10SM SCT050 25/14 A2998 RMK AO2A SLP152 T02530138 $ =
2018-07-18 13:56 METAR KMUI 181756Z 01004KT 10SM SCT050 26/15 A2997 RMK AO2A SLP148 T02620146
                 10264 20206 58004 $ =

Support USWX by starting your Amazon purchase here.